createdAt,value
2022-10-13T00:09:49.371Z,4.45
2022-10-13T00:12:17.835Z,5.30
2022-10-13T00:14:45.858Z,4.22
2022-10-13T00:17:13.943Z,3.70
2022-10-13T00:19:41.905Z,4.55
2022-10-13T00:22:11.151Z,4.50
2022-10-13T00:24:39.080Z,3.88
2022-10-13T00:27:09.278Z,5.63
2022-10-13T00:29:37.233Z,4.85
2022-10-13T00:32:05.569Z,3.70
2022-10-13T00:34:33.561Z,4.00
2022-10-13T00:37:01.466Z,4.35
2022-10-13T00:39:29.388Z,5.43
2022-10-13T00:41:58.383Z,3.63
2022-10-13T00:45:15.088Z,4.03
2022-10-13T00:47:47.926Z,4.45
2022-10-13T00:50:18.849Z,5.00
2022-10-13T00:52:51.654Z,6.07
2022-10-13T00:55:25.183Z,4.88
2022-10-13T00:57:54.998Z,4.93
2022-10-13T01:00:31.488Z,5.00
2022-10-13T01:03:04.304Z,3.30
2022-10-13T01:05:32.634Z,4.78
2022-10-13T01:08:01.373Z,3.70
2022-10-13T01:10:43.365Z,3.88
2022-10-13T01:13:24.427Z,4.35
2022-10-13T01:15:58.574Z,5.25
2022-10-13T01:18:38.651Z,4.68
2022-10-13T01:21:16.855Z,4.45
2022-10-13T01:24:34.894Z,4.65
2022-10-13T01:27:13.842Z,5.47
2022-10-13T01:30:06.655Z,4.40
2022-10-13T01:32:48.465Z,4.75
2022-10-13T01:39:38.332Z,4.03
2022-10-13T01:42:13.891Z,4.43
2022-10-13T01:44:48.029Z,4.70
2022-10-13T01:47:18.588Z,4.95
2022-10-13T01:54:14.529Z,3.63
2022-10-13T01:56:42.685Z,3.88
2022-10-13T01:59:14.008Z,4.15
2022-10-13T02:01:55.745Z,3.75
2022-10-13T02:04:37.077Z,4.25
2022-10-13T02:07:15.428Z,4.82
2022-10-13T02:09:51.843Z,5.72
2022-10-13T02:12:25.826Z,4.40
2022-10-13T02:14:55.847Z,4.80
2022-10-13T02:17:26.222Z,3.67
2022-10-13T02:19:56.757Z,3.55
2022-10-13T02:22:33.332Z,4.80
2022-10-13T02:25:05.947Z,4.35
2022-10-13T02:27:33.923Z,4.10
2022-10-13T02:30:01.868Z,4.78
2022-10-13T02:32:31.945Z,3.92
2022-10-13T02:35:01.183Z,3.92
2022-10-13T02:37:29.016Z,4.65
2022-10-13T02:39:56.910Z,5.20
2022-10-13T02:42:24.844Z,4.82
2022-10-13T02:44:56.742Z,5.45
2022-10-13T02:47:24.671Z,5.20
2022-10-13T02:49:52.595Z,4.05
2022-10-13T02:52:22.197Z,4.18
2022-10-13T02:57:19.050Z,3.53
2022-10-13T02:59:49.075Z,4.80
2022-10-13T03:02:17.639Z,3.85
2022-10-13T03:04:46.177Z,3.70
2022-10-13T03:07:14.301Z,3.75
2022-10-13T03:09:43.650Z,4.88
2022-10-13T03:12:11.620Z,4.20
2022-10-13T03:14:39.644Z,4.07
2022-10-13T03:17:12.477Z,3.60
2022-10-13T03:19:41.238Z,5.13
2022-10-13T03:22:15.357Z,3.78
2022-10-13T03:24:44.800Z,2.85
2022-10-13T03:27:13.029Z,3.72
2022-10-13T03:29:41.117Z,4.07
2022-10-13T03:32:09.008Z,4.80
2022-10-13T03:34:36.900Z,3.53
2022-10-13T03:37:04.965Z,4.28
2022-10-13T03:39:38.161Z,3.58
2022-10-13T03:42:09.184Z,3.58
2022-10-13T03:44:38.223Z,4.80
2022-10-13T03:47:06.428Z,4.30
2022-10-13T03:49:34.385Z,4.88
2022-10-13T03:52:02.283Z,3.30
2022-10-13T03:54:30.176Z,4.70
2022-10-13T03:56:58.484Z,3.88
2022-10-13T03:59:34.231Z,5.18
2022-10-13T04:02:04.782Z,4.63
2022-10-13T04:04:32.802Z,4.75
2022-10-13T04:07:00.784Z,4.65
2022-10-13T04:09:28.851Z,4.60
2022-10-13T04:11:56.797Z,3.50
2022-10-13T04:14:24.733Z,4.35
2022-10-13T04:16:54.056Z,3.60
2022-10-13T04:19:21.890Z,4.13
2022-10-13T04:21:49.887Z,4.60
2022-10-13T04:24:18.488Z,5.40
2022-10-13T04:26:47.190Z,5.07
2022-10-13T04:29:15.226Z,4.32
2022-10-13T04:31:43.820Z,4.43
2022-10-13T04:34:13.418Z,6.10
2022-10-13T04:36:41.414Z,4.95
2022-10-13T04:39:09.431Z,4.85
2022-10-13T04:41:37.358Z,4.32
2022-10-13T04:44:05.395Z,5.35
2022-10-13T04:46:33.581Z,5.35
2022-10-13T04:49:01.545Z,4.45
2022-10-13T04:51:34.683Z,5.07
2022-10-13T04:54:03.302Z,5.70
2022-10-13T04:56:31.263Z,7.07
2022-10-13T04:59:05.184Z,5.05
2022-10-13T05:01:33.640Z,5.72
2022-10-13T05:04:03.221Z,5.90
2022-10-13T05:06:58.828Z,5.43
2022-10-13T05:09:28.986Z,5.90
2022-10-13T05:11:57.285Z,5.25
2022-10-13T05:14:25.406Z,5.85
2022-10-13T05:16:53.372Z,5.18
2022-10-13T05:19:21.650Z,5.95
2022-10-13T05:21:51.848Z,4.38
2022-10-13T05:24:30.760Z,5.53
2022-10-13T05:26:58.734Z,5.13
2022-10-13T05:29:26.842Z,4.40
2022-10-13T05:31:54.840Z,4.80
2022-10-13T05:34:22.896Z,3.90
2022-10-13T05:36:52.212Z,4.00
2022-10-13T05:39:20.129Z,4.30
2022-10-13T05:41:48.079Z,5.13
2022-10-13T05:44:21.959Z,4.28
2022-10-13T05:46:56.706Z,5.53
2022-10-13T05:49:24.737Z,4.57
2022-10-13T05:51:57.639Z,4.50
2022-10-13T05:54:31.017Z,4.20
2022-10-13T05:57:04.030Z,3.97
2022-10-13T05:59:36.361Z,5.32
2022-10-13T06:02:05.071Z,3.95
2022-10-13T06:04:39.289Z,4.63
2022-10-13T06:07:10.243Z,4.85
2022-10-13T06:09:40.591Z,6.38
2022-10-13T06:12:09.890Z,6.05
2022-10-13T06:14:38.292Z,5.53
2022-10-13T06:17:08.332Z,5.15
2022-10-13T06:19:36.497Z,5.05
2022-10-13T06:22:09.788Z,5.45
2022-10-13T06:24:37.800Z,4.70
2022-10-13T06:27:09.929Z,5.85
2022-10-13T06:29:37.854Z,5.45
2022-10-13T06:32:06.333Z,5.82
2022-10-13T06:34:34.486Z,5.28
2022-10-13T06:37:02.449Z,6.00
2022-10-13T06:39:31.718Z,5.68
2022-10-13T06:42:02.021Z,4.85
2022-10-13T06:44:38.852Z,6.05
2022-10-13T06:47:06.886Z,5.93
2022-10-13T06:49:35.099Z,5.72
2022-10-13T06:52:18.193Z,5.40
2022-10-13T06:55:02.508Z,5.45
2022-10-13T06:57:45.138Z,5.90
2022-10-13T07:00:28.011Z,6.03
2022-10-13T07:03:12.172Z,4.95
2022-10-13T07:05:54.890Z,5.97
2022-10-13T07:08:37.585Z,5.80
2022-10-13T07:11:21.660Z,6.55
2022-10-13T07:14:07.141Z,5.18
2022-10-13T07:16:49.820Z,5.88
2022-10-13T07:19:32.444Z,5.55
2022-10-13T07:22:15.198Z,6.90
2022-10-13T07:24:57.873Z,5.53
2022-10-13T07:27:42.148Z,5.43
2022-10-13T07:30:24.812Z,6.40
2022-10-13T07:33:07.840Z,6.72
2022-10-13T07:35:50.481Z,6.10
2022-10-13T07:38:33.335Z,6.20
2022-10-13T07:41:16.393Z,6.07
2022-10-13T07:44:00.410Z,7.57
2022-10-13T07:46:43.036Z,7.88
2022-10-13T07:49:25.808Z,7.40
2022-10-13T07:52:08.626Z,7.47
2022-10-13T07:54:51.300Z,7.93
2022-10-13T07:57:34.042Z,6.28
2022-10-13T08:00:18.785Z,9.13
2022-10-13T08:03:01.436Z,7.15
2022-10-13T08:05:44.123Z,8.00
2022-10-13T08:08:26.807Z,6.68
2022-10-13T08:11:14.753Z,6.30
2022-10-13T08:16:48.633Z,5.25
2022-10-13T08:19:34.061Z,6.35
2022-10-13T08:22:17.811Z,6.53
2022-10-13T08:25:01.023Z,7.10
2022-10-13T08:27:51.234Z,5.65
2022-10-13T08:30:34.878Z,6.85
2022-10-13T08:33:18.949Z,6.22
2022-10-13T08:36:01.584Z,6.47
2022-10-13T08:38:44.503Z,6.72
2022-10-13T08:41:31.276Z,5.22
2022-10-13T08:45:02.754Z,6.70
2022-10-13T08:47:39.529Z,6.38
2022-10-13T08:50:26.656Z,5.78
2022-10-13T08:53:15.858Z,6.75
2022-10-13T08:56:09.071Z,6.05
2022-10-13T08:58:54.479Z,7.35
2022-10-13T09:01:38.076Z,7.32
2022-10-13T09:04:31.674Z,7.40
2022-10-13T09:07:20.304Z,6.90
2022-10-13T09:10:03.348Z,7.15
2022-10-13T09:12:46.040Z,9.15
2022-10-13T09:15:28.679Z,8.05
2022-10-13T09:18:13.996Z,8.38
2022-10-13T09:21:17.956Z,7.80
2022-10-13T09:24:08.125Z,8.30
2022-10-13T09:27:02.340Z,8.13
2022-10-13T09:29:46.520Z,8.35
2022-10-13T09:32:35.611Z,7.65
2022-10-13T09:35:23.045Z,7.80
2022-10-13T09:38:06.790Z,8.88
2022-10-13T09:41:01.652Z,8.38
2022-10-13T09:44:09.954Z,8.63
2022-10-13T09:46:55.260Z,9.00
2022-10-13T09:49:42.412Z,8.07
2022-10-13T09:52:25.955Z,8.23
2022-10-13T09:55:32.402Z,8.00
2022-10-13T09:58:22.822Z,8.32
2022-10-13T10:01:06.820Z,8.85
2022-10-13T10:03:50.403Z,8.50
2022-10-13T10:06:33.032Z,8.52
2022-10-13T10:09:33.065Z,7.90
2022-10-13T10:12:22.899Z,6.97
2022-10-13T10:15:20.638Z,8.15
2022-10-13T10:18:11.843Z,7.32
2022-10-13T10:21:09.561Z,6.18
2022-10-13T10:23:58.428Z,6.55
2022-10-13T10:26:51.940Z,6.40
2022-10-13T10:29:45.102Z,6.80
2022-10-13T10:32:37.018Z,6.60
2022-10-13T10:35:32.797Z,6.45
2022-10-13T10:38:30.558Z,6.57
2022-10-13T10:41:33.920Z,5.28
2022-10-13T10:44:21.304Z,5.80
2022-10-13T10:47:08.451Z,6.57
2022-10-13T10:49:57.767Z,5.63
2022-10-13T10:52:49.479Z,5.20
2022-10-13T10:55:36.555Z,6.25
2022-10-13T10:58:28.500Z,6.20
2022-10-13T11:01:29.654Z,5.10
2022-10-13T11:04:35.640Z,6.68
2022-10-13T11:07:51.887Z,7.60
2022-10-13T11:10:35.913Z,5.75
2022-10-13T11:13:19.849Z,5.53
2022-10-13T11:16:28.807Z,5.25
2022-10-13T11:19:30.321Z,7.15
2022-10-13T11:22:24.739Z,6.15
2022-10-13T11:25:39.401Z,6.30
2022-10-13T11:28:47.784Z,5.60
2022-10-13T11:31:49.776Z,5.55
2022-10-13T11:34:33.036Z,5.00
2022-10-13T11:37:18.223Z,5.38
2022-10-13T11:40:17.961Z,6.63
2022-10-13T11:43:29.465Z,5.70
2022-10-13T11:46:27.564Z,7.57
2022-10-13T11:49:39.359Z,5.07
2022-10-13T11:52:53.109Z,4.70
2022-10-13T11:55:44.752Z,5.65
2022-10-13T11:58:30.071Z,4.35
2022-10-13T12:01:19.411Z,5.63
2022-10-13T12:03:48.376Z,4.57
2022-10-13T12:06:33.173Z,5.35
2022-10-13T12:09:04.355Z,5.00
2022-10-13T12:11:36.380Z,4.80
2022-10-13T12:14:08.367Z,4.32
2022-10-13T12:16:36.437Z,4.88
2022-10-13T12:19:09.310Z,4.10
2022-10-13T12:21:50.199Z,5.05
2022-10-13T12:24:18.500Z,5.82
2022-10-13T12:26:46.579Z,5.38
2022-10-13T12:29:17.231Z,4.93
2022-10-13T12:31:48.470Z,4.72
2022-10-13T12:34:23.563Z,4.75
2022-10-13T12:37:00.652Z,5.38
2022-10-13T12:39:30.767Z,4.90
2022-10-13T12:42:00.450Z,5.57
2022-10-13T12:44:32.263Z,5.95
2022-10-13T12:47:03.531Z,5.00
2022-10-13T12:49:34.061Z,5.40
2022-10-13T12:52:07.335Z,5.38
2022-10-13T12:54:38.340Z,5.88
2022-10-13T12:57:16.995Z,5.80
2022-10-13T12:59:46.737Z,5.75
2022-10-13T13:04:49.210Z,5.10
2022-10-13T13:07:29.380Z,6.53
2022-10-13T13:10:02.518Z,5.82
2022-10-13T13:12:31.438Z,5.25
2022-10-13T13:15:19.133Z,6.47
2022-10-13T13:18:02.781Z,4.75
2022-10-13T13:20:33.291Z,6.18
2022-10-13T13:23:02.049Z,5.72
2022-10-13T13:25:30.051Z,5.72
2022-10-13T13:27:58.063Z,4.93
2022-10-13T13:30:27.437Z,5.40
2022-10-13T13:32:55.399Z,5.18
2022-10-13T13:35:23.303Z,5.50
2022-10-13T13:37:53.030Z,6.07
2022-10-13T13:40:22.696Z,5.35
2022-10-13T13:45:20.468Z,5.30
2022-10-13T13:47:49.986Z,5.88
2022-10-13T13:50:21.407Z,5.38
2022-10-13T13:52:57.542Z,6.80
2022-10-13T13:55:26.261Z,5.35
2022-10-13T13:57:54.508Z,5.95
2022-10-13T14:00:23.615Z,6.10
2022-10-13T14:02:57.967Z,6.10
2022-10-13T14:05:26.533Z,5.80
2022-10-13T14:07:56.685Z,6.50
2022-10-13T14:10:25.858Z,5.95
2022-10-13T14:12:53.937Z,6.10
2022-10-13T14:15:25.794Z,6.13
2022-10-13T14:17:58.273Z,6.20
2022-10-13T14:20:26.455Z,5.68
2022-10-13T14:22:54.658Z,5.75
2022-10-13T14:25:22.819Z,6.60
2022-10-13T14:27:50.885Z,5.65
2022-10-13T14:30:19.160Z,6.30
2022-10-13T14:32:47.404Z,7.10
2022-10-13T14:35:16.794Z,6.10
2022-10-13T14:37:44.987Z,6.07
2022-10-13T14:40:13.006Z,5.85
2022-10-13T14:42:42.414Z,5.72
2022-10-13T14:45:16.743Z,6.30
2022-10-13T14:47:45.046Z,6.15
2022-10-13T14:50:13.102Z,6.20
2022-10-13T14:52:42.416Z,5.95
2022-10-13T14:55:10.674Z,5.25
2022-10-13T14:57:39.117Z,6.63
2022-10-13T15:00:08.004Z,5.95
2022-10-13T15:02:36.033Z,6.40
2022-10-13T15:05:04.053Z,5.82
2022-10-13T15:07:32.394Z,6.03
2022-10-13T15:10:06.210Z,5.47
2022-10-13T15:12:35.382Z,5.85
2022-10-13T15:15:03.556Z,4.83
2022-10-13T15:17:34.509Z,5.38
2022-10-13T15:20:03.714Z,5.90
2022-10-13T15:22:31.723Z,5.95
2022-10-13T15:25:01.063Z,5.18
2022-10-13T15:27:29.266Z,5.07
2022-10-13T15:29:57.395Z,5.50
2022-10-13T15:32:25.755Z,5.25
2022-10-13T15:34:55.814Z,6.30
2022-10-13T15:37:23.833Z,4.80
2022-10-13T15:39:56.869Z,5.30
2022-10-13T15:42:26.936Z,4.97
2022-10-13T15:45:09.580Z,5.32
2022-10-13T15:47:38.183Z,4.85
2022-10-13T15:50:06.970Z,5.65
2022-10-13T15:52:38.700Z,5.88
2022-10-13T15:55:07.180Z,5.22
2022-10-13T15:57:36.774Z,4.68
2022-10-13T16:00:05.663Z,4.82
2022-10-13T16:02:41.264Z,5.90
2022-10-13T16:05:11.071Z,5.53
2022-10-13T16:07:39.813Z,4.93
2022-10-13T16:10:08.772Z,5.05
2022-10-13T16:12:38.390Z,5.38
2022-10-13T16:15:07.467Z,4.28
2022-10-13T16:17:35.656Z,4.63
2022-10-13T16:20:04.086Z,4.97
2022-10-13T16:22:32.240Z,5.03
2022-10-13T16:25:00.205Z,5.90
2022-10-13T16:27:28.178Z,5.93
2022-10-13T16:29:57.587Z,6.25
2022-10-13T16:32:25.540Z,6.60
2022-10-13T16:34:55.155Z,6.55
2022-10-13T16:37:23.461Z,6.15
2022-10-13T16:39:52.298Z,6.40
2022-10-13T16:42:20.637Z,6.60
2022-10-13T16:44:48.675Z,6.40
2022-10-13T16:47:18.848Z,6.22
2022-10-13T16:49:47.645Z,7.57
2022-10-13T16:52:16.140Z,6.97
2022-10-13T16:54:44.988Z,6.47
2022-10-13T16:57:13.091Z,6.90
2022-10-13T16:59:41.906Z,5.95
2022-10-13T17:02:15.111Z,6.50
2022-10-13T17:04:45.236Z,8.00
2022-10-13T17:07:13.267Z,7.30
2022-10-13T17:09:41.503Z,6.15
2022-10-13T17:12:09.581Z,6.18
2022-10-13T17:14:37.808Z,6.22
2022-10-13T17:17:05.772Z,6.07
2022-10-13T17:19:33.944Z,5.13
2022-10-13T17:22:03.626Z,6.57
2022-10-13T17:26:59.376Z,6.82
2022-10-13T17:29:27.415Z,6.32
2022-10-13T17:31:56.890Z,6.28
2022-10-13T17:34:24.858Z,6.88
2022-10-13T17:36:52.922Z,7.38
2022-10-13T17:39:22.215Z,8.25
2022-10-13T17:41:50.167Z,7.45
2022-10-13T17:44:20.651Z,6.78
2022-10-13T17:46:49.694Z,5.90
2022-10-13T17:49:18.222Z,7.33
2022-10-13T17:51:46.370Z,7.22
2022-10-13T17:54:16.469Z,5.72
2022-10-13T17:56:47.351Z,5.95
2022-10-13T17:59:16.236Z,6.03
2022-10-13T18:01:45.099Z,6.73
2022-10-13T18:04:15.255Z,5.78
2022-10-13T18:06:44.838Z,6.55
2022-10-13T18:09:17.107Z,5.75
2022-10-13T18:11:50.561Z,6.10
2022-10-13T18:14:19.815Z,5.38
2022-10-13T18:16:50.074Z,7.53
2022-10-13T18:19:18.320Z,7.03
2022-10-13T18:21:46.273Z,7.05
2022-10-13T18:24:14.192Z,6.28
2022-10-13T18:26:42.434Z,5.40
2022-10-13T18:29:13.221Z,7.13
2022-10-13T18:31:42.080Z,6.22
2022-10-13T18:34:12.839Z,5.57
2022-10-13T18:36:42.738Z,5.68
2022-10-13T18:39:13.595Z,6.05
2022-10-13T18:41:43.141Z,6.03
2022-10-13T18:44:12.887Z,5.78
2022-10-13T18:49:12.293Z,5.80
2022-10-13T18:51:43.168Z,6.60
2022-10-13T18:54:11.541Z,5.22
2022-10-13T18:56:39.567Z,6.47
2022-10-13T18:59:09.411Z,4.97
2022-10-13T19:01:40.731Z,7.03
2022-10-13T19:04:12.534Z,5.82
2022-10-13T19:06:41.218Z,6.65
2022-10-13T19:09:11.793Z,6.53
2022-10-13T19:11:40.051Z,5.40
2022-10-13T19:14:11.380Z,5.78
2022-10-13T19:16:43.537Z,6.20
2022-10-13T19:19:12.036Z,6.93
2022-10-13T19:21:40.804Z,6.70
2022-10-13T19:24:10.582Z,6.50
2022-10-13T19:26:38.790Z,6.50
2022-10-13T19:29:09.121Z,7.70
2022-10-13T19:31:38.548Z,7.45
2022-10-13T19:34:11.819Z,7.60
2022-10-13T19:36:41.802Z,5.95
2022-10-13T19:39:14.702Z,3.30
2022-10-13T19:41:44.057Z,4.03
2022-10-13T19:44:12.675Z,3.65
2022-10-13T19:46:41.698Z,4.03
2022-10-13T19:49:12.193Z,4.03
2022-10-13T19:51:45.869Z,3.80
2022-10-13T19:54:13.839Z,3.78
2022-10-13T19:56:46.972Z,3.80
2022-10-13T19:59:15.417Z,4.03
2022-10-13T20:01:43.352Z,3.70
2022-10-13T20:04:16.000Z,3.83
2022-10-13T20:06:47.248Z,3.50
2022-10-13T20:09:15.786Z,3.97
2022-10-13T20:11:45.528Z,3.97
2022-10-13T20:16:41.557Z,3.70
2022-10-13T20:19:11.926Z,3.65
2022-10-13T20:21:41.289Z,3.22
2022-10-13T20:24:13.538Z,3.75
2022-10-13T20:26:41.649Z,4.15
2022-10-13T20:29:09.722Z,3.65
2022-10-13T20:31:37.891Z,3.08
2022-10-13T20:34:05.896Z,4.43
2022-10-13T20:36:38.592Z,4.43
2022-10-13T20:39:09.222Z,4.00
2022-10-13T20:41:37.654Z,3.95
2022-10-13T20:44:05.767Z,3.85
2022-10-13T20:46:34.909Z,4.53
2022-10-13T20:49:10.977Z,4.57
2022-10-13T20:51:40.741Z,4.50
2022-10-13T20:54:10.639Z,4.20
2022-10-13T20:56:38.695Z,5.28
2022-10-13T20:59:08.314Z,4.47
2022-10-13T21:01:36.832Z,5.40
2022-10-13T21:04:06.147Z,6.55
2022-10-13T21:06:34.854Z,8.25
2022-10-13T21:09:03.855Z,6.15
2022-10-13T21:11:33.596Z,5.97
2022-10-13T21:14:06.192Z,5.35
2022-10-13T21:16:34.682Z,6.65
2022-10-13T21:19:03.285Z,6.28
2022-10-13T21:21:33.378Z,5.72
2022-10-13T21:24:03.868Z,5.53
2022-10-13T21:26:33.690Z,5.70
2022-10-13T21:29:02.368Z,5.97
2022-10-13T21:31:31.585Z,6.10
2022-10-13T21:33:59.644Z,6.03
2022-10-13T21:36:30.252Z,5.38
2022-10-13T21:39:00.142Z,5.25
2022-10-13T21:41:29.378Z,4.85
2022-10-13T21:43:59.863Z,4.05
2022-10-13T21:46:33.554Z,4.28
2022-10-13T21:49:03.720Z,5.55
2022-10-13T21:51:33.678Z,4.65
2022-10-13T21:54:03.370Z,5.35
2022-10-13T21:56:32.216Z,4.95
2022-10-13T21:59:02.416Z,4.45
2022-10-13T22:01:30.728Z,4.10
2022-10-13T22:04:02.121Z,5.03
2022-10-13T22:06:31.936Z,4.97
2022-10-13T22:11:31.726Z,5.32
2022-10-13T22:14:02.674Z,5.22
2022-10-13T22:16:33.111Z,5.85
2022-10-13T22:19:01.270Z,5.22
2022-10-13T22:21:31.212Z,5.53
2022-10-13T22:26:29.042Z,5.15
2022-10-13T22:28:57.850Z,4.70
2022-10-13T22:31:27.886Z,5.57
2022-10-13T22:33:56.199Z,5.70
2022-10-13T22:36:25.917Z,4.97
2022-10-13T22:41:22.922Z,5.55
2022-10-13T22:43:51.818Z,6.05
2022-10-13T22:46:21.595Z,4.20
2022-10-13T22:51:21.395Z,6.97
2022-10-13T22:53:50.197Z,6.10
2022-10-13T22:56:20.666Z,5.43
2022-10-13T22:58:50.784Z,5.30
2022-10-13T23:01:19.488Z,5.25
2022-10-13T23:03:48.813Z,5.13
2022-10-13T23:06:21.423Z,5.05
2022-10-13T23:08:50.332Z,4.80
2022-10-13T23:11:19.081Z,5.93
2022-10-13T23:13:47.249Z,4.80
2022-10-13T23:16:17.153Z,5.40
2022-10-13T23:18:45.360Z,5.18
2022-10-13T23:21:28.338Z,5.80
2022-10-13T23:23:58.378Z,5.53
2022-10-13T23:26:27.457Z,5.82
2022-10-13T23:28:56.028Z,4.97
2022-10-13T23:31:24.733Z,5.40
2022-10-13T23:33:52.875Z,5.22
2022-10-13T23:36:22.437Z,5.20
2022-10-13T23:41:24.593Z,5.30
2022-10-13T23:43:52.774Z,6.47
2022-10-13T23:46:20.966Z,6.28
2022-10-13T23:48:49.095Z,5.57
2022-10-13T23:54:21.067Z,4.43
2022-10-13T23:56:49.205Z,4.78
2022-10-13T23:59:17.389Z,5.43
